WMT5042 LIBD-LATI
Flight info
| Callsign | WMT5042 |
|---|---|
| Flight time | 0h 45m |
| Altitude | 30000 |
| Route | DOLON L612 KAPPO P92 DIRES |
| Aircraft | A20N/M-SDE2E3FGHIRWXY/LB1 |
Departure
| Time | 2026-04-22 17:47 |
|---|---|
| Airport | Bari Karol Wojtyła International Airport (LIBD) |
Arrival
| Time | 2026-04-22 18:33 |
|---|---|
| Airport | Tirana International Airport Mother Teresa (LATI) |
| Time | Latitude | Longitude | Altitude | Speed | Heading |
|---|---|---|---|---|---|
| 2026-04-22 17:05 | 41.13517 | 16.76291 | 151 ft | 0 kts | 159° |
| 2026-04-22 17:38 | 41.13523 | 16.76288 | 151 ft | 2 kts | 156° |
| 2026-04-22 17:39 | 41.13540 | 16.76274 | 151 ft | 5 kts | 139° |
| 2026-04-22 17:39 | 41.13564 | 16.76235 | 151 ft | 6 kts | 114° |
| 2026-04-22 17:39 | 41.13562 | 16.76135 | 154 ft | 0 kts | 69° |
| 2026-04-22 17:40 | 41.13563 | 16.76141 | 154 ft | 4 kts | 69° |
| 2026-04-22 17:40 | 41.13568 | 16.76213 | 152 ft | 12 kts | 94° |
| 2026-04-22 17:40 | 41.13603 | 16.76345 | 148 ft | 18 kts | 69° |
| 2026-04-22 17:41 | 41.13651 | 16.76511 | 141 ft | 16 kts | 69° |
| 2026-04-22 17:41 | 41.13670 | 16.76535 | 140 ft | 5 kts | 23° |
| 2026-04-22 17:41 | 41.13710 | 16.76553 | 139 ft | 0 kts | 20° |
| 2026-04-22 17:42 | 41.13727 | 16.76559 | 138 ft | 6 kts | 10° |
| 2026-04-22 17:42 | 41.13784 | 16.76555 | 138 ft | 10 kts | 10° |
| 2026-04-22 17:42 | 41.13817 | 16.76606 | 137 ft | 13 kts | 76° |
| 2026-04-22 17:42 | 41.13882 | 16.76826 | 128 ft | 24 kts | 68° |
| 2026-04-22 17:43 | 41.13943 | 16.77039 | 123 ft | 24 kts | 70° |
| 2026-04-22 17:43 | 41.13969 | 16.77134 | 125 ft | 11 kts | 68° |
| 2026-04-22 17:43 | 41.14007 | 16.77263 | 123 ft | 13 kts | 69° |
| 2026-04-22 17:43 | 41.14009 | 16.77270 | 123 ft | 0 kts | 69° |
| 2026-04-22 17:44 | 41.14015 | 16.77292 | 121 ft | 8 kts | 69° |
| 2026-04-22 17:44 | 41.14070 | 16.77386 | 118 ft | 18 kts | 19° |
| 2026-04-22 17:44 | 41.14086 | 16.77389 | 117 ft | 0 kts | 7° |
| 2026-04-22 17:45 | 41.14108 | 16.77396 | 116 ft | 10 kts | 14° |
| 2026-04-22 17:46 | 41.14149 | 16.77409 | 116 ft | 4 kts | 9° |
| 2026-04-22 17:46 | 41.14206 | 16.77382 | 112 ft | 7 kts | 319° |
| 2026-04-22 17:46 | 41.14214 | 16.77358 | 112 ft | 6 kts | 283° |
| 2026-04-22 17:46 | 41.14210 | 16.77333 | 112 ft | 0 kts | 245° |
| 2026-04-22 17:47 | 41.14210 | 16.77332 | 113 ft | 1 kts | 245° |
| 2026-04-22 17:47 | 41.14129 | 16.77065 | 124 ft | 73 kts | 250° |
| 2026-04-22 17:47 | 41.13874 | 16.76118 | 162 ft | 139 kts | 250° |
| 2026-04-22 17:47 | 41.13529 | 16.74933 | 923 ft | 135 kts | 251° |
| 2026-04-22 17:48 | 41.13153 | 16.73768 | 1770 ft | 138 kts | 251° |
| 2026-04-22 17:48 | 41.12748 | 16.72564 | 2443 ft | 151 kts | 252° |
| 2026-04-22 17:48 | 41.12326 | 16.71199 | 3065 ft | 169 kts | 253° |
| 2026-04-22 17:48 | 41.11892 | 16.69677 | 3707 ft | 188 kts | 255° |
| 2026-04-22 17:49 | 41.11420 | 16.67928 | 4434 ft | 213 kts | 254° |
| 2026-04-22 17:49 | 41.10916 | 16.66049 | 5664 ft | 217 kts | 254° |
| 2026-04-22 17:49 | 41.10407 | 16.64158 | 7047 ft | 219 kts | 254° |
| 2026-04-22 17:49 | 41.09891 | 16.62235 | 8332 ft | 223 kts | 254° |
| 2026-04-22 17:50 | 41.09370 | 16.60291 | 9712 ft | 225 kts | 254° |
| 2026-04-22 17:50 | 41.08917 | 16.58311 | 10961 ft | 223 kts | 265° |
| 2026-04-22 17:50 | 41.08985 | 16.56296 | 12239 ft | 218 kts | 287° |
| 2026-04-22 17:50 | 41.09666 | 16.54506 | 13520 ft | 219 kts | 308° |
| 2026-04-22 17:51 | 41.10872 | 16.53257 | 14677 ft | 225 kts | 330° |
| 2026-04-22 17:51 | 41.12420 | 16.52805 | 15829 ft | 237 kts | 352° |
| 2026-04-22 17:51 | 41.14089 | 16.53353 | 16915 ft | 262 kts | 17° |
| 2026-04-22 17:51 | 41.15678 | 16.54587 | 17931 ft | 272 kts | 19° |
| 2026-04-22 17:52 | 41.17310 | 16.55917 | 18865 ft | 277 kts | 18° |
| 2026-04-22 17:52 | 41.18964 | 16.57258 | 19749 ft | 281 kts | 18° |
| 2026-04-22 17:52 | 41.20651 | 16.58610 | 20638 ft | 285 kts | 17° |
| 2026-04-22 17:52 | 41.22358 | 16.60015 | 21512 ft | 297 kts | 24° |
| 2026-04-22 17:53 | 41.23792 | 16.62193 | 22357 ft | 331 kts | 50° |
| 2026-04-22 17:53 | 41.24603 | 16.65188 | 23098 ft | 361 kts | 71° |
| 2026-04-22 17:53 | 41.24920 | 16.68609 | 23388 ft | 391 kts | 80° |
| 2026-04-22 17:53 | 41.25080 | 16.72337 | 23640 ft | 415 kts | 81° |
| 2026-04-22 17:54 | 41.25259 | 16.76271 | 23856 ft | 438 kts | 82° |
| 2026-04-22 17:54 | 41.25190 | 16.80442 | 24071 ft | 464 kts | 92° |
| 2026-04-22 17:54 | 41.24648 | 16.84785 | 24284 ft | 487 kts | 102° |
| 2026-04-22 17:54 | 41.23742 | 16.89199 | 24691 ft | 499 kts | 104° |
| 2026-04-22 17:55 | 41.22835 | 16.93657 | 25397 ft | 502 kts | 103° |
| 2026-04-22 17:55 | 41.21937 | 16.98126 | 26056 ft | 506 kts | 103° |
| 2026-04-22 17:55 | 41.21023 | 17.02688 | 26683 ft | 511 kts | 103° |
| 2026-04-22 17:55 | 41.20100 | 17.07296 | 27286 ft | 516 kts | 103° |
| 2026-04-22 17:56 | 41.19121 | 17.11861 | 27872 ft | 522 kts | 109° |
| 2026-04-22 17:56 | 41.17596 | 17.16258 | 28446 ft | 526 kts | 122° |
| 2026-04-22 17:56 | 41.15475 | 17.20193 | 28987 ft | 526 kts | 134° |
| 2026-04-22 17:56 | 41.13020 | 17.23834 | 29510 ft | 530 kts | 135° |
| 2026-04-22 17:57 | 41.10556 | 17.27470 | 29801 ft | 533 kts | 135° |
| 2026-04-22 17:57 | 41.08076 | 17.31136 | 29922 ft | 533 kts | 135° |
| 2026-04-22 17:57 | 41.05604 | 17.34794 | 30035 ft | 534 kts | 135° |
| 2026-04-22 17:58 | 41.00645 | 17.42130 | 30043 ft | 534 kts | 135° |
| 2026-04-22 17:58 | 40.95684 | 17.49452 | 30047 ft | 533 kts | 135° |
| 2026-04-22 17:59 | 40.90724 | 17.56753 | 30038 ft | 533 kts | 135° |
| 2026-04-22 17:59 | 40.85767 | 17.64047 | 30042 ft | 533 kts | 135° |
| 2026-04-22 18:00 | 40.81679 | 17.70079 | 30033 ft | 533 kts | 135° |
| 2026-04-22 18:00 | 40.75887 | 17.78603 | 30025 ft | 532 kts | 135° |
| 2026-04-22 18:01 | 40.70972 | 17.85811 | 30023 ft | 531 kts | 135° |
| 2026-04-22 18:01 | 40.66035 | 17.93074 | 30017 ft | 532 kts | 132° |
| 2026-04-22 18:01 | 40.63936 | 17.97098 | 30020 ft | 536 kts | 120° |
| 2026-04-22 18:02 | 40.62416 | 18.01560 | 30024 ft | 535 kts | 108° |
| 2026-04-22 18:02 | 40.61530 | 18.06302 | 30023 ft | 533 kts | 95° |
| 2026-04-22 18:02 | 40.61314 | 18.11166 | 30031 ft | 526 kts | 83° |
| 2026-04-22 18:02 | 40.61772 | 18.15908 | 30029 ft | 518 kts | 70° |
| 2026-04-22 18:03 | 40.62871 | 18.20369 | 30031 ft | 505 kts | 58° |
| 2026-04-22 18:03 | 40.66344 | 18.28223 | 29766 ft | 496 kts | 51° |
| 2026-04-22 18:03 | 40.67937 | 18.32283 | 28911 ft | 504 kts | 57° |
| 2026-04-22 18:04 | 40.69264 | 18.36607 | 27860 ft | 511 kts | 62° |
| 2026-04-22 18:04 | 40.70391 | 18.41059 | 27001 ft | 511 kts | 65° |
| 2026-04-22 18:04 | 40.71394 | 18.45479 | 26846 ft | 493 kts | 66° |
| 2026-04-22 18:04 | 40.72342 | 18.49789 | 26446 ft | 487 kts | 66° |
| 2026-04-22 18:05 | 40.73279 | 18.54024 | 26140 ft | 488 kts | 66° |
| 2026-04-22 18:05 | 40.74246 | 18.58358 | 26218 ft | 495 kts | 66° |
| 2026-04-22 18:05 | 40.75273 | 18.62691 | 26931 ft | 492 kts | 61° |
| 2026-04-22 18:05 | 40.76674 | 18.66766 | 27581 ft | 485 kts | 51° |
| 2026-04-22 18:06 | 40.78379 | 18.70629 | 28137 ft | 488 kts | 50° |
| 2026-04-22 18:06 | 40.80095 | 18.74491 | 28719 ft | 492 kts | 50° |
| 2026-04-22 18:06 | 40.81807 | 18.78375 | 29320 ft | 481 kts | 50° |
| 2026-04-22 18:06 | 40.83436 | 18.82119 | 29492 ft | 458 kts | 49° |
| 2026-04-22 18:07 | 40.85006 | 18.85720 | 29646 ft | 453 kts | 49° |
| 2026-04-22 18:07 | 40.86616 | 18.89355 | 29791 ft | 461 kts | 49° |
| 2026-04-22 18:07 | 40.88215 | 18.92971 | 29925 ft | 460 kts | 47° |
| 2026-04-22 18:07 | 40.90033 | 18.96384 | 30018 ft | 448 kts | 38° |
| 2026-04-22 18:08 | 40.92096 | 18.99411 | 30021 ft | 443 kts | 34° |
| 2026-04-22 18:08 | 40.96257 | 19.05412 | 29819 ft | 440 kts | 34° |
| 2026-04-22 18:08 | 40.98310 | 19.08393 | 29343 ft | 437 kts | 34° |
| 2026-04-22 18:09 | 41.00350 | 19.11358 | 28760 ft | 434 kts | 34° |
| 2026-04-22 18:09 | 41.02372 | 19.14300 | 28171 ft | 430 kts | 34° |
| 2026-04-22 18:09 | 41.04353 | 19.17276 | 27615 ft | 433 kts | 39° |
| 2026-04-22 18:09 | 41.06001 | 19.20640 | 27437 ft | 435 kts | 50° |
| 2026-04-22 18:10 | 41.07208 | 19.24311 | 27285 ft | 432 kts | 59° |
| 2026-04-22 18:10 | 41.08233 | 19.27989 | 26754 ft | 425 kts | 58° |
| 2026-04-22 18:10 | 41.09358 | 19.31793 | 24549 ft | 463 kts | 57° |
| 2026-04-22 18:10 | 41.10565 | 19.35849 | 23428 ft | 483 kts | 62° |
| 2026-04-22 18:11 | 41.11666 | 19.40062 | 23022 ft | 469 kts | 62° |
| 2026-04-22 18:11 | 41.12761 | 19.44046 | 22759 ft | 452 kts | 61° |
| 2026-04-22 18:11 | 41.13855 | 19.47911 | 22283 ft | 441 kts | 61° |
| 2026-04-22 18:11 | 41.14927 | 19.51656 | 21639 ft | 437 kts | 62° |
| 2026-04-22 18:12 | 41.16009 | 19.55428 | 20711 ft | 440 kts | 63° |
| 2026-04-22 18:12 | 41.17012 | 19.59296 | 19456 ft | 447 kts | 71° |
| 2026-04-22 18:12 | 41.17443 | 19.62041 | 18504 ft | 452 kts | 80° |
| 2026-04-22 18:12 | 41.18097 | 19.67481 | 16471 ft | 448 kts | 70° |
| 2026-04-22 18:13 | 41.19362 | 19.71133 | 15702 ft | 419 kts | 52° |
| 2026-04-22 18:13 | 41.21180 | 19.73894 | 15373 ft | 379 kts | 33° |
| 2026-04-22 18:13 | 41.23326 | 19.75554 | 15119 ft | 338 kts | 12° |
| 2026-04-22 18:13 | 41.25518 | 19.76021 | 14724 ft | 306 kts | 351° |
| 2026-04-22 18:14 | 41.27525 | 19.75423 | 14059 ft | 292 kts | 336° |
| 2026-04-22 18:14 | 41.29436 | 19.74464 | 12995 ft | 296 kts | 336° |
| 2026-04-22 18:14 | 41.31446 | 19.73621 | 11589 ft | 311 kts | 342° |
| 2026-04-22 18:14 | 41.33621 | 19.72996 | 10086 ft | 328 kts | 348° |
| 2026-04-22 18:15 | 41.35922 | 19.72549 | 8503 ft | 339 kts | 351° |
| 2026-04-22 18:15 | 41.38296 | 19.72189 | 6968 ft | 346 kts | 353° |
| 2026-04-22 18:15 | 41.40695 | 19.71854 | 5498 ft | 349 kts | 353° |
| 2026-04-22 18:15 | 41.43062 | 19.71535 | 4714 ft | 331 kts | 354° |
| 2026-04-22 18:16 | 41.45284 | 19.71239 | 4163 ft | 310 kts | 354° |
| 2026-04-22 18:16 | 41.47273 | 19.70976 | 3777 ft | 290 kts | 354° |
| 2026-04-22 18:16 | 41.49178 | 19.70720 | 3476 ft | 270 kts | 354° |
| 2026-04-22 18:16 | 41.50983 | 19.70476 | 3244 ft | 250 kts | 354° |
| 2026-04-22 18:17 | 41.52638 | 19.70171 | 3068 ft | 231 kts | 341° |
| 2026-04-22 18:17 | 41.53845 | 19.68945 | 2955 ft | 216 kts | 306° |
| 2026-04-22 18:17 | 41.54605 | 19.67120 | 2946 ft | 230 kts | 297° |
| 2026-04-22 18:17 | 41.55254 | 19.65179 | 2945 ft | 228 kts | 295° |
| 2026-04-22 18:18 | 41.55875 | 19.63219 | 2953 ft | 231 kts | 295° |
| 2026-04-22 18:18 | 41.56358 | 19.61195 | 3429 ft | 232 kts | 283° |
| 2026-04-22 18:18 | 41.56461 | 19.59059 | 4041 ft | 221 kts | 269° |
| 2026-04-22 18:18 | 41.56207 | 19.57092 | 4635 ft | 213 kts | 260° |
| 2026-04-22 18:19 | 41.55686 | 19.55222 | 5278 ft | 220 kts | 236° |
| 2026-04-22 18:19 | 41.54533 | 19.53923 | 5827 ft | 221 kts | 205° |
| 2026-04-22 18:19 | 41.53061 | 19.53254 | 6274 ft | 225 kts | 202° |
| 2026-04-22 18:19 | 41.51798 | 19.52068 | 6285 ft | 222 kts | 228° |
| 2026-04-22 18:20 | 41.50570 | 19.50912 | 6114 ft | 222 kts | 200° |
| 2026-04-22 18:20 | 41.49027 | 19.50597 | 5834 ft | 223 kts | 185° |
| 2026-04-22 18:20 | 41.47492 | 19.50490 | 5556 ft | 224 kts | 180° |
| 2026-04-22 18:20 | 41.45933 | 19.50600 | 5303 ft | 224 kts | 175° |
| 2026-04-22 18:21 | 41.44380 | 19.50790 | 5043 ft | 224 kts | 175° |
| 2026-04-22 18:21 | 41.42847 | 19.50975 | 4918 ft | 217 kts | 175° |
| 2026-04-22 18:21 | 41.41353 | 19.51151 | 4695 ft | 217 kts | 175° |
| 2026-04-22 18:21 | 41.39825 | 19.51343 | 4321 ft | 223 kts | 175° |
| 2026-04-22 18:22 | 41.38257 | 19.51540 | 3950 ft | 229 kts | 175° |
| 2026-04-22 18:22 | 41.36646 | 19.51767 | 3503 ft | 238 kts | 171° |
| 2026-04-22 18:22 | 41.35018 | 19.52275 | 3171 ft | 241 kts | 165° |
| 2026-04-22 18:22 | 41.33350 | 19.52928 | 3049 ft | 254 kts | 159° |
| 2026-04-22 18:23 | 41.31747 | 19.53845 | 2997 ft | 252 kts | 155° |
| 2026-04-22 18:23 | 41.30148 | 19.54827 | 2998 ft | 253 kts | 155° |
| 2026-04-22 18:23 | 41.28546 | 19.55812 | 3004 ft | 252 kts | 155° |
| 2026-04-22 18:24 | 41.25365 | 19.57773 | 3005 ft | 252 kts | 155° |
| 2026-04-22 18:24 | 41.23774 | 19.58739 | 3005 ft | 250 kts | 155° |
| 2026-04-22 18:24 | 41.20677 | 19.60610 | 2996 ft | 232 kts | 155° |
| 2026-04-22 18:25 | 41.19248 | 19.61482 | 3004 ft | 220 kts | 155° |
| 2026-04-22 18:25 | 41.17975 | 19.62408 | 3174 ft | 198 kts | 142° |
| 2026-04-22 18:25 | 41.17006 | 19.63718 | 3397 ft | 198 kts | 120° |
| 2026-04-22 18:26 | 41.16258 | 19.67129 | 4114 ft | 195 kts | 98° |
| 2026-04-22 18:26 | 41.16041 | 19.68916 | 4489 ft | 198 kts | 95° |
| 2026-04-22 18:26 | 41.15899 | 19.70679 | 4865 ft | 193 kts | 92° |
| 2026-04-22 18:26 | 41.15812 | 19.72440 | 5156 ft | 189 kts | 91° |
| 2026-04-22 18:27 | 41.16056 | 19.74093 | 5688 ft | 185 kts | 60° |
| 2026-04-22 18:27 | 41.16785 | 19.75484 | 6285 ft | 184 kts | 42° |
| 2026-04-22 18:27 | 41.17866 | 19.76279 | 6812 ft | 179 kts | 1° |
| 2026-04-22 18:27 | 41.19114 | 19.76029 | 6915 ft | 183 kts | 345° |
| 2026-04-22 18:28 | 41.20314 | 19.75573 | 6502 ft | 177 kts | 343° |
| 2026-04-22 18:28 | 41.21108 | 19.75259 | 5983 ft | 177 kts | 342° |
| 2026-04-22 18:28 | 41.22291 | 19.74761 | 5231 ft | 175 kts | 348° |
| 2026-04-22 18:28 | 41.23491 | 19.74542 | 4507 ft | 174 kts | 355° |
| 2026-04-22 18:29 | 41.24668 | 19.74415 | 3789 ft | 171 kts | 354° |
| 2026-04-22 18:29 | 41.25870 | 19.74321 | 3040 ft | 172 kts | 356° |
| 2026-04-22 18:29 | 41.27069 | 19.74274 | 2259 ft | 172 kts | 357° |
| 2026-04-22 18:29 | 41.28244 | 19.74211 | 1688 ft | 162 kts | 353° |
| 2026-04-22 18:30 | 41.29271 | 19.73957 | 1537 ft | 139 kts | 346° |
| 2026-04-22 18:30 | 41.30955 | 19.73474 | 1537 ft | 120 kts | 351° |
| 2026-04-22 18:30 | 41.31800 | 19.73314 | 1598 ft | 124 kts | 353° |
| 2026-04-22 18:31 | 41.32672 | 19.73220 | 1395 ft | 127 kts | 354° |
| 2026-04-22 18:31 | 41.33562 | 19.73154 | 1163 ft | 128 kts | 355° |
| 2026-04-22 18:31 | 41.34441 | 19.73068 | 1037 ft | 127 kts | 353° |
| 2026-04-22 18:31 | 41.35315 | 19.72908 | 1069 ft | 129 kts | 351° |
| 2026-04-22 18:32 | 41.36206 | 19.72731 | 1010 ft | 131 kts | 352° |
| 2026-04-22 18:32 | 41.37111 | 19.72614 | 784 ft | 130 kts | 354° |
| 2026-04-22 18:32 | 41.38021 | 19.72557 | 554 ft | 130 kts | 354° |
| 2026-04-22 18:32 | 41.38904 | 19.72401 | 468 ft | 131 kts | 352° |
| 2026-04-22 18:33 | 41.39810 | 19.72245 | 299 ft | 134 kts | 353° |
| 2026-04-22 18:33 | 41.40717 | 19.72151 | 133 ft | 121 kts | 349° |
| 2026-04-22 18:33 | 41.41123 | 19.72095 | 124 ft | 34 kts | 357° |
| 2026-04-22 18:33 | 41.41373 | 19.72069 | 124 ft | 37 kts | 353° |
| 2026-04-22 18:34 | 41.41635 | 19.72032 | 123 ft | 38 kts | 355° |
| 2026-04-22 18:34 | 41.41810 | 19.72011 | 121 ft | 14 kts | 355° |
| 2026-04-22 18:34 | 41.41873 | 19.71967 | 123 ft | 9 kts | 284° |
| 2026-04-22 18:34 | 41.41872 | 19.71859 | 121 ft | 14 kts | 265° |
| 2026-04-22 18:35 | 41.41862 | 19.71711 | 123 ft | 7 kts | 265° |
| 2026-04-22 18:35 | 41.41862 | 19.71706 | 123 ft | 3 kts | 265° |
| 2026-04-22 18:35 | 41.41865 | 19.71619 | 121 ft | 12 kts | 293° |
| 2026-04-22 18:35 | 41.41916 | 19.71586 | 121 ft | 12 kts | 348° |
| 2026-04-22 18:36 | 41.41974 | 19.71577 | 122 ft | 5 kts | 355° |
| 2026-04-22 18:36 | 41.41991 | 19.71574 | 119 ft | 3 kts | 354° |
| 2026-04-22 18:36 | 41.42003 | 19.71568 | 121 ft | 3 kts | 331° |
| 2026-04-22 18:36 | 41.42002 | 19.71541 | 119 ft | 5 kts | 248° |
| 2026-04-22 18:37 | 41.41992 | 19.71513 | 120 ft | 0 kts | 249° |